Time;durP1;ratioP1;P1;durP2;ratioP2;P2;SDS_P1;SDS_P2;PMS_P1;PMS_P2;Temp;Humidity;BMP_temperature;BMP_pressure;BME280_temperature;BME280_humidity;BME280_pressure;Samples;Min_cycle;Max_cycle;Signal;HPM_P1;HPM_P2
2022/06/06 00:01:10;;;;;;;3.30;2.87;;;;;;;15.49;67.08;100324.89;1768537;78;21003;-69
2022/06/06 00:03:38;;;;;;;7.70;3.00;;;;;;;15.48;66.98;100323.23;1776857;80;21008;-70
2022/06/06 00:06:12;;;;;;;6.70;3.08;;;;;;;15.46;66.98;100328.21;1791764;80;21967;-70
2022/06/06 00:08:39;;;;;;;5.55;2.90;;;;;;;15.45;67.06;100326.55;1768785;80;21016;-71
2022/06/06 00:11:09;;;;;;;5.35;3.10;;;;;;;15.43;67.33;100332.98;1761848;81;21069;-70
2022/06/06 00:13:40;;;;;;;4.00;2.95;;;;;;;15.40;67.44;100331.98;1788806;80;21032;-74
2022/06/06 00:16:07;;;;;;;3.58;2.65;;;;;;;15.40;67.42;100334.14;1790413;80;21054;-69
2022/06/06 00:18:35;;;;;;;3.83;3.05;;;;;;;15.37;67.38;100330.96;1790029;79;21928;-70
2022/06/06 00:21:03;;;;;;;3.55;2.98;;;;;;;15.35;67.49;100336.45;1774072;80;20996;-70
2022/06/06 00:23:30;;;;;;;4.35;3.05;;;;;;;15.33;67.72;100334.41;1787200;78;20964;-70
2022/06/06 00:25:57;;;;;;;3.25;2.95;;;;;;;15.33;67.78;100339.73;1768559;78;21004;-70
2022/06/06 00:28:24;;;;;;;4.28;3.30;;;;;;;15.33;67.86;100334.41;1768897;78;20956;-70
2022/06/06 00:30:56;;;;;;;3.30;3.00;;;;;;;15.32;67.84;100333.23;1777151;80;22462;-69
2022/06/06 00:36:09;;;;;;;3.60;3.30;;;;;;;15.30;68.01;100329.41;1768762;79;21048;-69
2022/06/06 00:38:36;;;;;;;4.05;3.00;;;;;;;15.37;68.06;100329.63;1756011;80;21004;-69
2022/06/06 00:41:03;;;;;;;3.33;3.00;;;;;;;15.39;67.91;100328.48;1752912;81;20956;-70
2022/06/06 00:43:30;;;;;;;5.65;3.58;;;;;;;15.39;67.82;100323.66;1751057;80;22583;-70
2022/06/06 00:45:57;;;;;;;5.42;3.10;;;;;;;15.36;67.68;100326.63;1780852;80;21040;-70
2022/06/06 00:48:39;;;;;;;5.00;3.08;;;;;;;15.31;67.62;100327.57;1751021;80;21419;-70
2022/06/06 00:51:10;;;;;;;3.52;3.00;;;;;;;15.25;67.61;100325.52;1785792;78;21462;-69
2022/06/06 00:53:45;;;;;;;3.50;3.20;;;;;;;15.17;67.67;100335.61;1762681;80;21454;-69
2022/06/06 00:56:20;;;;;;;4.12;3.33;;;;;;;15.12;67.75;100335.22;1771885;80;21856;-70
2022/06/06 00:58:50;;;;;;;3.58;3.02;;;;;;;15.09;68.03;100340.85;1778857;79;20984;-74
2022/06/06 01:01:17;;;;;;;3.87;3.25;;;;;;;15.11;68.27;100342.86;1777032;80;21449;-74
2022/06/06 01:03:45;;;;;;;3.72;3.33;;;;;;;15.14;68.50;100346.53;1777026;80;20996;-70
2022/06/06 01:06:14;;;;;;;5.42;3.42;;;;;;;15.15;68.51;100341.55;1747879;81;21371;-69
2022/06/06 01:08:47;;;;;;;3.50;3.20;;;;;;;15.14;68.50;100342.55;1752790;80;22901;-69
2022/06/06 01:11:14;;;;;;;3.45;3.10;;;;;;;15.13;68.47;100350.19;1768954;80;20937;-71
2022/06/06 01:13:41;;;;;;;3.58;3.15;;;;;;;15.12;68.55;100348.52;1779055;80;21052;-69
2022/06/06 01:16:17;;;;;;;4.47;3.30;;;;;;;15.11;68.66;100350.84;1782031;79;20965;-70
2022/06/06 01:19:05;;;;;;;4.33;3.52;;;;;;;15.10;68.59;100346.52;1744920;81;20965;-68
2022/06/06 01:21:43;;;;;;;3.98;3.10;;;;;;;15.06;68.58;100349.98;1706195;82;21797;-70
2022/06/06 01:24:35;;;;;;;4.60;3.45;;;;;;;15.02;68.60;100350.41;1775029;80;20992;-71
2022/06/06 01:27:19;;;;;;;3.62;3.20;;;;;;;14.99;68.60;100348.91;1784941;80;21360;-72
2022/06/06 01:29:53;;;;;;;3.72;3.42;;;;;;;14.97;68.56;100352.70;1769931;79;21482;-70
2022/06/06 01:32:22;;;;;;;4.20;3.27;;;;;;;14.93;68.60;100354.81;1768707;80;20964;-69
2022/06/06 01:34:50;;;;;;;4.40;3.40;;;;;;;14.88;68.60;100353.95;1793700;80;21808;-71
2022/06/06 01:37:31;;;;;;;3.62;3.33;;;;;;;14.86;68.71;100360.38;1796189;80;20988;-69
2022/06/06 01:40:01;;;;;;;6.53;3.42;;;;;;;14.82;68.67;100362.52;1785200;79;21418;-70
2022/06/06 01:42:36;;;;;;;4.12;3.17;;;;;;;14.76;68.72;100360.44;1785379;80;21074;-69
2022/06/06 01:45:11;;;;;;;3.50;3.20;;;;;;;14.71;68.74;100368.53;1786065;80;20949;-70
2022/06/06 01:47:46;;;;;;;4.58;3.30;;;;;;;14.64;68.95;100371.43;1765299;80;21856;-69
2022/06/06 01:50:12;;;;;;;4.17;3.37;;;;;;;14.65;69.30;100368.63;1760922;81;20933;-70
2022/06/06 01:53:03;;;;;;;3.87;3.12;;;;;;;14.61;69.18;100372.57;1729397;81;21017;-70
2022/06/06 01:55:32;;;;;;;5.75;2.85;;;;;;;14.55;69.23;100379.30;1729011;81;21036;-69
2022/06/06 01:58:01;;;;;;;5.00;3.30;;;;;;;14.47;69.36;100383.18;1756662;80;20962;-68
2022/06/06 02:00:30;;;;;;;3.77;3.20;;;;;;;14.45;69.48;100385.16;1766664;78;21807;-69
2022/06/06 02:02:57;;;;;;;3.75;3.42;;;;;;;14.40;69.58;100383.41;1762273;80;21059;-69
2022/06/06 02:05:24;;;;;;;4.17;3.27;;;;;;;14.38;69.61;100381.40;1763277;80;21083;-69
2022/06/06 02:07:58;;;;;;;6.42;3.20;;;;;;;14.33;69.70;100380.98;1766623;79;38914;-70
2022/06/06 02:10:25;;;;;;;3.65;3.35;;;;;;;14.31;69.81;100384.28;1771205;78;20988;-70
2022/06/06 02:12:53;;;;;;;3.80;3.50;;;;;;;14.31;69.90;100382.46;1772020;78;22562;-69
2022/06/06 02:15:25;;;;;;;3.50;3.20;;;;;;;14.31;69.98;100385.13;1743224;80;21502;-69
2022/06/06 02:17:53;;;;;;;6.17;3.37;;;;;;;14.24;69.92;100382.69;1758712;80;21016;-69
2022/06/06 02:20:22;;;;;;;4.08;3.02;;;;;;;14.18;69.99;100373.95;1768820;80;20984;-70
2022/06/06 02:22:49;;;;;;;3.25;2.95;;;;;;;14.13;70.10;100378.05;1790646;80;21008;-71
2022/06/06 02:25:16;;;;;;;4.85;3.60;;;;;;;14.13;70.26;100378.88;1780526;80;22303;-70
2022/06/06 02:27:43;;;;;;;5.35;3.55;;;;;;;14.12;70.30;100385.18;1780161;78;21411;-70
2022/06/06 02:30:16;;;;;;;3.98;3.50;;;;;;;14.11;70.35;100384.84;1787148;78;21097;-70
2022/06/06 02:32:43;;;;;;;3.87;3.47;;;;;;;14.11;70.47;100383.52;1786293;80;21520;-68
2022/06/06 02:35:13;;;;;;;4.50;3.70;;;;;;;14.10;70.53;100385.83;1770396;80;20976;-69
2022/06/06 02:37:41;;;;;;;4.85;3.40;;;;;;;14.09;70.64;100381.95;1784271;79;22666;-70
2022/06/06 02:40:09;;;;;;;3.60;3.30;;;;;;;14.10;70.71;100376.53;1786058;80;20985;-69
2022/06/06 02:42:37;;;;;;;4.35;3.50;;;;;;;14.11;70.74;100375.55;1793490;80;21035;-69
2022/06/06 02:45:07;;;;;;;4.87;3.50;;;;;;;14.13;70.84;100373.58;1793876;80;20968;-69
2022/06/06 02:47:33;;;;;;;3.77;3.40;;;;;;;14.15;71.02;100374.75;1767771;79;20948;-69
2022/06/06 02:50:03;;;;;;;4.12;3.58;;;;;;;14.17;71.05;100374.95;1792693;78;20939;-69
2022/06/06 02:52:30;;;;;;;5.10;3.58;;;;;;;14.20;71.09;100376.00;1784237;78;22386;-69
2022/06/06 02:54:57;;;;;;;4.15;3.67;;;;;;;14.24;71.12;100376.05;1772741;80;20964;-71
2022/06/06 02:57:24;;;;;;;4.67;3.58;;;;;;;14.28;71.27;100380.11;1753279;81;21020;-69
2022/06/06 02:59:51;;;;;;;3.70;3.40;;;;;;;14.33;71.31;100383.64;1732215;82;21059;-69
2022/06/06 03:02:17;;;;;;;5.62;3.45;;;;;;;14.39;71.28;100382.23;1728759;81;21884;-69
2022/06/06 03:04:44;;;;;;;3.92;3.62;;;;;;;14.44;71.32;100378.63;1726884;82;21021;-69
2022/06/06 03:07:36;;;;;;;3.92;3.62;;;;;;;14.51;71.35;100387.73;1734379;82;21595;-69
2022/06/06 03:10:27;;;;;;;5.42;3.85;;;;;;;14.58;71.31;100386.17;1718484;82;20972;-69
2022/06/06 03:13:34;;;;;;;3.92;3.52;;;;;;;14.65;71.26;100386.39;1700193;84;20959;-69
2022/06/06 03:22:52;;;;;;;3.50;3.20;;;;;;;14.91;70.82;100394.02;1730897;81;20966;-69
2022/06/06 03:25:36;;;;;;;;;;;;;;;15.00;70.62;100389.63;1753232;81;21000;-68
2022/06/06 03:28:27;;;;;;;3.80;3.17;;;;;;;15.06;70.49;100387.22;1747547;81;20143;-70
2022/06/06 03:31:23;;;;;;;5.78;3.10;;;;;;;15.14;70.21;100388.61;1746938;81;21440;-70
2022/06/06 03:34:28;;;;;;;3.45;3.02;;;;;;;15.26;70.01;100385.75;1741967;81;21495;-69
2022/06/06 03:37:15;;;;;;;;;;;;;;;15.38;69.74;100389.85;1741580;81;21046;-70
2022/06/06 03:39:56;;;;;;;3.50;3.20;;;;;;;15.48;69.71;100381.78;1735805;81;20499;-69
2022/06/06 03:42:37;;;;;;;5.72;3.00;;;;;;;15.55;69.50;100384.19;1746294;81;20972;-69
2022/06/06 03:45:22;;;;;;;3.60;3.00;;;;;;;15.64;69.12;100388.12;1729547;81;22083;-70
2022/06/06 03:48:33;;;;;;;3.62;2.67;;;;;;;15.73;68.63;100389.03;1741223;81;21020;-69
2022/06/06 03:51:29;;;;;;;5.58;2.70;;;;;;;15.84;68.09;100393.27;1728021;81;21000;-70
2022/06/06 03:54:24;;;;;;;3.92;2.90;;;;;;;15.97;67.25;100396.34;1743310;81;21067;-69
2022/06/06 03:57:20;;;;;;;5.00;2.80;;;;;;;16.10;66.63;100392.77;1745543;81;20964;-69
2022/06/06 03:59:51;;;;;;;3.37;2.90;;;;;;;16.22;66.27;100393.36;1745671;81;21768;-68
2022/06/06 04:02:22;;;;;;;3.08;2.67;;;;;;;16.31;65.52;100393.75;1730198;81;21079;-72
2022/06/06 04:04:49;;;;;;;5.92;2.70;;;;;;;16.41;65.33;100398.46;1743949;81;20997;-70
2022/06/06 04:07:17;;;;;;;4.50;2.75;;;;;;;16.48;64.92;100395.47;1713618;81;21066;-68
2022/06/06 04:09:45;;;;;;;3.92;2.70;;;;;;;16.55;64.56;100393.84;1728597;81;20949;-69
2022/06/06 04:12:41;;;;;;;3.52;2.50;;;;;;;16.62;63.94;100398.55;1746915;81;22781;-72
2022/06/06 04:15:32;;;;;;;6.37;2.42;;;;;;;16.67;63.08;100393.56;1739063;81;21006;-70
2022/06/06 04:18:13;;;;;;;4.53;2.42;;;;;;;16.74;62.80;100395.46;1692113;82;21031;-69
2022/06/06 04:20:46;;;;;;;2.85;2.50;;;;;;;16.83;62.62;100392.33;1754127;80;21064;-69
2022/06/06 04:23:41;;;;;;;2.72;2.30;;;;;;;16.91;62.39;100395.03;1782095;80;20944;-69
2022/06/06 04:26:29;;;;;;;5.87;2.55;;;;;;;16.98;62.23;100402.70;1784126;80;21927;-70
2022/06/06 04:29:33;;;;;;;5.80;2.70;;;;;;;17.06;61.54;100405.89;1774269;79;21009;-70
2022/06/06 04:32:39;;;;;;;4.47;2.52;;;;;;;17.12;61.20;100403.41;1759256;80;20984;-69
2022/06/06 04:35:35;;;;;;;4.28;2.60;;;;;;;17.19;60.53;100410.28;1787329;78;21031;-69
2022/06/06 04:38:17;;;;;;;3.75;2.47;;;;;;;17.23;60.25;100402.77;1778395;79;21015;-69
2022/06/06 04:41:13;;;;;;;3.17;2.42;;;;;;;17.31;59.93;100406.30;1774358;80;21874;-69
2022/06/06 04:43:48;;;;;;;3.58;2.30;;;;;;;17.37;59.77;100411.45;1781737;80;21004;-69
2022/06/06 04:46:33;;;;;;;2.90;2.25;;;;;;;17.41;59.45;100411.48;1757939;81;21372;-69
2022/06/06 04:49:01;;;;;;;5.22;2.77;;;;;;;17.46;59.50;100412.64;1724681;81;21028;-72
2022/06/06 04:51:27;;;;;;;3.77;2.40;;;;;;;17.53;59.48;100412.81;1735668;81;21001;-69
2022/06/06 04:53:55;;;;;;;3.05;2.37;;;;;;;17.58;59.07;100413.67;1776947;80;21842;-69
2022/06/06 04:56:22;;;;;;;3.62;2.20;;;;;;;17.62;58.74;100415.83;1741131;81;20944;-69
2022/06/06 04:58:52;;;;;;;5.00;2.40;;;;;;;17.67;58.84;100414.84;1715979;81;21060;-69
2022/06/06 05:01:19;;;;;;;3.35;2.47;;;;;;;17.74;58.84;100413.19;1784003;78;21411;-68
2022/06/06 05:03:46;;;;;;;2.40;2.20;;;;;;;17.82;58.61;100408.85;1776446;80;21476;-69
2022/06/06 05:07:00;;;;;;;2.87;2.45;;;;;;;17.87;58.18;100418.05;1775316;79;20959;-69
2022/06/06 05:10:09;;;;;;;3.20;2.40;;;;;;;17.94;58.18;100415.52;1744575;80;21048;-68
2022/06/06 05:13:20;;;;;;;5.33;2.30;;;;;;;18.05;58.15;100422.34;1764453;80;21024;-69
2022/06/06 05:16:21;;;;;;;3.90;2.10;;;;;;;18.17;57.94;100429.87;1754071;81;21040;-73
2022/06/06 05:19:12;;;;;;;3.70;2.30;;;;;;;18.28;57.72;100438.04;1734766;80;20992;-69
2022/06/06 05:22:11;;;;;;;5.17;2.50;;;;;;;18.35;57.82;100436.36;1739139;80;21941;-69
2022/06/06 05:25:22;;;;;;;3.62;2.25;;;;;;;18.45;57.62;100441.52;1730484;81;21036;-68
2022/06/06 05:28:10;;;;;;;2.95;2.17;;;;;;;18.51;57.26;100436.80;1775853;80;21004;-69
2022/06/06 05:31:10;;;;;;;2.40;2.12;;;;;;;18.63;56.98;100431.94;1790315;79;21069;-68
2022/06/06 05:34:01;;;;;;;2.72;2.22;;;;;;;18.70;56.31;100439.11;1785534;79;21130;-69
2022/06/06 05:36:48;;;;;;;3.17;2.35;;;;;;;18.76;55.89;100441.11;1767663;81;21945;-68
2022/06/06 05:39:38;;;;;;;2.50;2.22;;;;;;;18.82;55.66;100439.59;1759143;80;20952;-70
2022/06/06 05:42:14;;;;;;;3.20;2.12;;;;;;;18.88;55.69;100442.39;1752948;79;20992;-68
2022/06/06 05:45:27;;;;;;;2.10;1.90;;;;;;;18.99;55.75;100444.34;1782370;80;21020;-70
2022/06/06 05:48:21;;;;;;;4.33;2.05;;;;;;;19.07;55.40;100445.66;1768547;80;20959;-69
2022/06/06 05:51:06;;;;;;;2.22;1.95;;;;;;;19.18;55.20;100448.44;1786304;80;21950;-69
2022/06/06 05:54:12;;;;;;;2.33;2.12;;;;;;;19.24;54.89;100441.88;1767324;81;21427;-75
2022/06/06 05:57:06;;;;;;;3.58;2.10;;;;;;;19.35;54.86;100454.87;1752224;80;20965;-70
2022/06/06 05:59:48;;;;;;;2.30;2.10;;;;;;;19.44;54.77;100449.79;1767375;81;21004;-68
2022/06/06 06:02:49;;;;;;;3.02;2.10;;;;;;;19.55;54.86;100454.41;1726018;81;21311;-69
2022/06/06 06:05:30;;;;;;;2.00;1.80;;;;;;;19.67;53.48;100451.16;1747793;81;21743;-69
2022/06/06 06:08:27;;;;;;;2.83;1.90;;;;;;;19.78;52.76;100459.28;1724532;81;21011;-69
2022/06/06 06:11:17;;;;;;;1.98;1.52;;;;;;;19.90;52.27;100455.70;1794486;80;20984;-67
2022/06/06 06:13:59;;;;;;;1.40;1.30;;;;;;;20.05;50.87;100459.74;1785902;78;21004;-70
2022/06/06 06:16:28;;;;;;;2.67;1.50;;;;;;;20.13;49.23;100455.65;1789177;79;21553;-69
2022/06/06 06:19:06;;;;;;;5.87;1.70;;;;;;;20.15;48.89;100459.81;1772919;80;21835;-68
2022/06/06 06:21:37;;;;;;;3.42;1.72;;;;;;;20.21;48.88;100460.44;1755391;80;21002;-67
2022/06/06 06:24:12;;;;;;;1.87;1.40;;;;;;;20.33;49.13;100458.64;1782207;80;20960;-69
2022/06/06 06:26:39;;;;;;;1.80;1.40;;;;;;;20.43;47.69;100460.07;1741802;80;20992;-69
2022/06/06 06:29:08;;;;;;;2.90;1.45;;;;;;;20.53;47.86;100464.66;1790299;79;20952;-69
2022/06/06 06:32:13;;;;;;;3.10;1.37;;;;;;;20.64;47.78;100466.56;1764974;81;21905;-70
2022/06/06 06:35:09;;;;;;;6.00;1.42;;;;;;;20.77;47.15;100470.27;1782911;78;21479;-72
2022/06/06 06:37:58;;;;;;;2.02;1.50;;;;;;;20.91;46.23;100475.30;1779921;79;21063;-73
2022/06/06 06:40:58;;;;;;;1.60;1.40;;;;;;;21.04;45.83;100466.09;1782589;80;21561;-71
2022/06/06 06:43:49;;;;;;;2.77;1.30;;;;;;;21.20;45.91;100468.22;1783696;80;20980;-72
2022/06/06 06:46:23;;;;;;;2.27;1.30;;;;;;;21.36;44.40;100469.38;1764282;81;21827;-71
2022/06/06 06:48:52;;;;;;;2.58;1.25;;;;;;;21.42;43.92;100465.44;1784888;80;21040;-73
2022/06/06 06:51:49;;;;;;;1.67;1.20;;;;;;;21.50;44.04;100459.59;1782044;79;21063;-73
2022/06/06 06:54:43;;;;;;;1.65;1.30;;;;;;;21.59;42.95;100459.80;1780071;79;21052;-75
2022/06/06 06:57:27;;;;;;;3.40;1.22;;;;;;;21.64;43.13;100458.21;1770101;80;20955;-74
2022/06/06 06:59:59;;;;;;;1.40;1.25;;;;;;;21.80;43.35;100454.41;1765371;80;21983;-74
2022/06/06 07:09:19;;;;;;;1.42;0.95;;;;;;;21.95;42.23;100451.15;1773898;80;20996;-74
2022/06/06 07:11:53;;;;;;;1.52;1.30;;;;;;;22.15;40.77;100448.66;1794930;78;20976;-71
2022/06/06 07:14:45;;;;;;;2.55;1.30;;;;;;;22.28;40.90;100447.91;1767616;80;22649;-71
2022/06/06 07:17:12;;;;;;;2.55;1.00;;;;;;;22.43;40.71;100449.16;1792639;80;21024;-72
2022/06/06 07:20:02;;;;;;;3.42;1.27;;;;;;;22.58;40.43;100444.48;1751055;80;20998;-71
2022/06/06 07:22:59;;;;;;;1.50;1.00;;;;;;;22.69;39.39;100452.02;1774134;80;20999;-73
2022/06/06 07:25:04;;;;;;;1.52;1.10;;;;;;;22.76;38.90;100450.17;1781685;80;20826;-74
2022/06/06 07:27:30;;;;;;;1.30;0.80;;;;;;;22.84;38.30;100441.96;1771807;79;21967;-71
2022/06/06 07:29:58;;;;;;;2.65;1.20;;;;;;;22.92;37.43;100444.18;1758984;81;21040;-72
2022/06/06 07:32:36;;;;;;;2.85;1.02;;;;;;;22.94;37.42;100444.28;1759200;81;21015;-71
2022/06/06 07:35:23;;;;;;;2.27;1.07;;;;;;;22.92;36.85;100446.87;1759552;81;20941;-71
2022/06/06 07:38:07;;;;;;;3.02;1.10;;;;;;;22.88;36.58;100442.41;1759223;81;21434;-71
2022/06/06 07:40:49;;;;;;;1.52;1.02;;;;;;;22.89;37.22;100445.94;1728904;80;21701;-72
2022/06/06 07:44:04;;;;;;;1.00;0.80;;;;;;;23.04;37.62;100447.95;1776531;79;21462;-71
2022/06/06 07:46:58;;;;;;;2.42;1.05;;;;;;;23.22;37.36;100449.58;1783747;80;20980;-71
2022/06/06 07:49:46;;;;;;;1.47;1.10;;;;;;;23.38;37.33;100450.56;1786955;80;20933;-70
2022/06/06 07:52:46;;;;;;;2.45;1.00;;;;;;;23.54;36.04;100452.55;1790524;80;20949;-71
2022/06/06 07:55:38;;;;;;;3.70;1.00;;;;;;;23.52;35.44;100452.77;1790626;80;21843;-71
2022/06/06 07:58:26;;;;;;;1.98;0.85;;;;;;;23.55;36.10;100460.98;1789679;79;20936;-73
2022/06/06 08:01:22;;;;;;;1.85;1.00;;;;;;;23.64;36.75;100453.87;1745832;81;21073;-73
2022/06/06 08:04:04;;;;;;;4.45;1.00;;;;;;;23.82;36.50;100456.47;1769682;80;21027;-73
2022/06/06 08:06:54;;;;;;;3.55;1.12;;;;;;;23.93;35.47;100446.41;1757329;80;21048;-73
2022/06/06 08:09:42;;;;;;;0.85;0.85;;;;;;;24.03;35.41;100448.69;1774790;80;23343;-72
2022/06/06 08:12:42;;;;;;;1.65;0.95;;;;;;;24.12;34.29;100455.02;1753362;80;21019;-71
2022/06/06 08:15:32;;;;;;;2.12;1.02;;;;;;;24.13;34.40;100449.12;1748051;81;20976;-71
2022/06/06 08:18:30;;;;;;;2.45;0.90;;;;;;;24.22;34.42;100445.15;1724831;81;21143;-71
2022/06/06 08:21:21;;;;;;;2.45;0.80;;;;;;;24.32;33.63;100438.86;1776276;80;21055;-71
2022/06/06 08:23:47;;;;;;;1.55;0.70;;;;;;;24.31;32.46;100437.17;1767608;80;21916;-70
2022/06/06 08:26:15;;;;;;;5.00;0.90;;;;;;;24.29;32.87;100433.83;1775307;80;21016;-71
2022/06/06 08:28:43;;;;;;;1.32;0.93;;;;;;;24.37;32.94;100438.22;1778494;80;21450;-72
2022/06/06 08:31:10;;;;;;;3.98;0.82;;;;;;;24.42;31.79;100443.31;1775516;80;21015;-71
2022/06/06 08:33:36;;;;;;;3.35;0.90;;;;;;;24.42;30.98;100446.02;1743150;81;21094;-71
2022/06/06 08:36:30;;;;;;;1.37;0.85;;;;;;;24.40;31.79;100444.02;1735773;81;22423;-71
2022/06/06 08:39:36;;;;;;;1.55;1.00;;;;;;;24.50;32.02;100440.36;1728441;81;20970;-70
2022/06/06 08:42:44;;;;;;;1.07;0.88;;;;;;;24.74;31.50;100445.61;1768960;80;21000;-70
2022/06/06 08:45:44;;;;;;;1.07;0.88;;;;;;;24.86;31.11;100445.77;1721316;81;21058;-72
2022/06/06 08:48:41;;;;;;;3.47;0.78;;;;;;;24.89;30.55;100445.34;1757636;81;21087;-73
2022/06/06 08:51:49;;;;;;;0.75;0.72;;;;;;;24.91;31.90;100436.52;1758782;80;21855;-72
2022/06/06 08:54:45;;;;;;;1.90;1.10;;;;;;;25.11;31.94;100431.05;1769105;80;21043;-71
2022/06/06 08:57:49;;;;;;;1.02;0.88;;;;;;;25.26;31.18;100430.23;1787191;80;21028;-72
2022/06/06 09:00:26;;;;;;;2.65;0.95;;;;;;;25.39;31.41;100434.76;1740935;81;21047;-73
2022/06/06 09:03:21;;;;;;;1.67;0.70;;;;;;;25.61;30.47;100429.82;1756591;81;21477;-73
2022/06/06 09:06:33;;;;;;;1.52;0.90;;;;;;;25.73;30.31;100435.38;1746798;81;21944;-71
2022/06/06 09:09:26;;;;;;;2.55;0.90;;;;;;;25.72;29.43;100443.20;1665518;84;21603;-71
2022/06/06 09:12:11;;;;;;;2.37;0.80;;;;;;;25.66;29.51;100440.27;1774116;80;21043;-70
2022/06/06 09:14:58;;;;;;;0.93;0.70;;;;;;;25.73;30.29;100441.62;1771563;79;21015;-76
2022/06/06 09:18:19;;;;;;;1.65;0.88;;;;;;;25.90;29.56;100437.33;1765807;80;21038;-74
2022/06/06 09:21:23;;;;;;;0.90;0.70;;;;;;;25.93;30.40;100438.76;1758203;80;21771;-69
2022/06/06 09:24:14;;;;;;;4.47;0.80;;;;;;;26.03;30.48;100440.44;1785481;80;21115;-71
2022/06/06 09:27:15;;;;;;;1.47;0.90;;;;;;;26.24;30.25;100443.27;1704285;81;21048;-71
2022/06/06 09:30:02;;;;;;;2.45;1.00;;;;;;;26.24;29.44;100438.67;1757875;81;21016;-70
2022/06/06 09:32:58;;;;;;;1.72;1.05;;;;;;;26.34;29.12;100449.00;1757795;81;21031;-71
2022/06/06 09:35:55;;;;;;;1.40;0.90;;;;;;;26.36;29.07;100444.21;1769609;80;21826;-71
2022/06/06 09:38:48;;;;;;;1.67;0.85;;;;;;;26.39;29.22;100442.44;1758530;80;21494;-72
2022/06/06 09:41:35;;;;;;;2.47;0.80;;;;;;;26.34;28.80;100442.23;1759182;80;20957;-70
2022/06/06 09:44:51;;;;;;;4.58;1.10;;;;;;;26.05;28.76;100442.39;1770853;79;21040;-71
2022/06/06 09:47:56;;;;;;;2.90;0.98;;;;;;;25.83;29.00;100431.13;1787504;78;21416;-73
2022/06/06 09:50:53;;;;;;;2.00;0.90;;;;;;;25.86;29.96;100439.33;1772503;79;21905;-71
2022/06/06 09:59:01;;;;;;;3.22;0.88;;;;;;;26.10;28.70;100442.57;1781323;79;21428;-71
2022/06/06 09:59:49;;;;;;;3.85;1.15;;;;;;;26.49;29.01;100429.73;1777803;80;21060;-71
2022/06/06 10:02:39;;;;;;;1.02;0.85;;;;;;;26.60;28.82;100426.27;1759469;81;21110;-71
2022/06/06 10:05:17;;;;;;;2.25;0.78;;;;;;;26.73;27.61;100424.78;1768840;80;21590;-71
2022/06/06 10:08:15;;;;;;;2.60;0.85;;;;;;;26.73;28.65;100424.78;1790506;79;20933;-71
2022/06/06 10:11:04;;;;;;;3.98;0.90;;;;;;;26.78;28.80;100422.20;1790347;79;21008;-71
2022/06/06 10:13:52;;;;;;;0.95;0.70;;;;;;;26.96;29.12;100413.23;1790012;79;21388;-71
2022/06/06 10:17:08;;;;;;;2.10;0.80;;;;;;;27.14;27.65;100412.94;1776587;80;21008;-71
2022/06/06 10:19:56;;;;;;;2.15;0.80;;;;;;;27.20;28.07;100408.75;1759146;81;21950;-71
2022/06/06 10:22:51;;;;;;;1.98;0.70;;;;;;;27.50;27.90;100407.38;1739800;81;20965;-71
2022/06/06 10:25:46;;;;;;;1.17;0.90;;;;;;;27.72;27.49;100398.74;1772073;80;21454;-70
2022/06/06 10:28:46;;;;;;;2.00;0.80;;;;;;;27.87;26.18;100399.09;1790419;80;21408;-71
2022/06/06 10:31:39;;;;;;;1.45;0.68;;;;;;;27.95;26.97;100395.51;1790329;78;21402;-71
2022/06/06 10:34:31;;;;;;;5.60;1.00;;;;;;;28.14;26.75;100400.83;1765498;79;22979;-71
2022/06/06 10:37:36;;;;;;;1.25;0.60;;;;;;;28.36;26.61;100397.00;1755652;81;21003;-71
2022/06/06 10:40:34;;;;;;;3.72;0.90;;;;;;;28.55;25.06;100397.67;1755967;81;20990;-71
2022/06/06 10:43:27;;;;;;;5.03;0.70;;;;;;;28.13;26.01;100401.89;1757894;80;21138;-72
2022/06/06 10:46:05;;;;;;;3.60;0.80;;;;;;;28.13;26.01;100401.89;1790576;79;20936;-71
2022/06/06 10:48:55;;;;;;;1.32;0.72;;;;;;;28.23;26.66;100389.37;1790303;79;22534;-71
2022/06/06 10:51:49;;;;;;;6.12;1.12;;;;;;;28.42;26.37;100387.91;1789591;80;20964;-71
2022/06/06 10:54:38;;;;;;;1.00;0.70;;;;;;;28.58;25.11;100389.06;1774914;79;21336;-72
2022/06/06 10:57:46;;;;;;;1.30;0.60;;;;;;;28.58;25.11;100389.06;1759370;81;21460;-71
2022/06/06 11:00:22;;;;;;;3.30;1.00;;;;;;;28.51;25.27;100391.91;1759389;81;21419;-71
2022/06/06 11:03:21;;;;;;;1.57;0.75;;;;;;;28.38;25.76;100382.66;1760063;80;21799;-70
2022/06/06 11:06:26;;;;;;;2.87;1.00;;;;;;;28.43;25.53;100391.73;1776577;80;21028;-72
2022/06/06 11:09:23;;;;;;;0.70;0.65;;;;;;;28.57;25.48;100386.88;1657293;85;20993;-74
2022/06/06 11:11:56;;;;;;;6.40;1.00;;;;;;;28.73;25.35;100393.44;1682690;85;21041;-72
2022/06/06 11:14:35;;;;;;;5.55;0.90;;;;;;;28.95;26.32;100386.33;1731990;80;21035;-72
2022/06/06 11:17:40;;;;;;;1.52;0.80;;;;;;;29.23;26.09;100384.64;1788582;80;21975;-70
2022/06/06 11:20:20;;;;;;;2.20;0.95;;;;;;;29.30;25.10;100392.13;1788747;80;20934;-71
2022/06/06 11:23:25;;;;;;;2.37;1.00;;;;;;;29.13;25.26;100389.36;1704149;81;21110;-72
2022/06/06 11:26:14;;;;;;;3.17;1.20;;;;;;;28.88;25.87;100388.33;1783804;80;20957;-70
2022/06/06 11:29:13;;;;;;;3.12;1.80;;;;;;;28.79;25.69;100384.34;1773780;80;20992;-69
2022/06/06 11:31:50;;;;;;;2.22;1.90;;;;;;;28.76;25.25;100372.59;1732388;82;22309;-70
2022/06/06 11:34:52;;;;;;;0.93;0.85;;;;;;;28.99;26.45;100371.17;1732672;82;21047;-70
2022/06/06 11:37:30;;;;;;;4.75;0.90;;;;;;;29.33;24.42;100363.06;1733267;81;21000;-73
2022/06/06 11:40:38;;;;;;;3.72;0.90;;;;;;;29.53;24.29;100359.39;1732479;82;21473;-72
2022/06/06 11:43:38;;;;;;;5.22;1.00;;;;;;;29.73;24.52;100357.53;1744962;81;20993;-73
2022/06/06 11:46:36;;;;;;;1.32;0.80;;;;;;;30.09;24.88;100362.98;1771659;80;21826;-72
2022/06/06 11:49:13;;;;;;;3.50;0.93;;;;;;;30.37;24.09;100363.37;1771521;80;20946;-71
2022/06/06 11:52:17;;;;;;;3.92;1.00;;;;;;;30.59;24.67;100356.55;1788934;79;20985;-71
2022/06/06 11:55:28;;;;;;;4.30;0.90;;;;;;;30.72;23.78;100352.13;1789011;79;20954;-72
2022/06/06 11:58:24;;;;;;;3.77;0.80;;;;;;;30.85;23.25;100352.25;1778480;80;20948;-71
2022/06/06 12:01:36;;;;;;;4.62;0.90;;;;;;;31.01;23.71;100356.80;1742353;81;22647;-72
2022/06/06 12:04:45;;;;;;;14.15;1.60;;;;;;;31.28;23.27;100354.10;1759472;81;20949;-72
2022/06/06 12:07:41;;;;;;;1.00;0.80;;;;;;;31.38;22.58;100363.47;1776620;80;20949;-72
2022/06/06 12:10:24;;;;;;;1.57;0.90;;;;;;;31.49;22.33;100361.92;1791060;80;21020;-73
2022/06/06 12:13:31;;;;;;;2.30;0.80;;;;;;;31.46;21.16;100364.33;1773366;80;21451;-72
2022/06/06 12:16:19;;;;;;;5.03;1.07;;;;;;;30.92;22.10;100361.61;1770127;80;21726;-72
2022/06/06 12:19:15;;;;;;;9.75;1.27;;;;;;;30.51;22.02;100358.92;1789134;79;20939;-72
2022/06/06 12:21:50;;;;;;;4.15;0.95;;;;;;;30.28;23.34;100354.52;1789254;78;20988;-70
2022/06/06 12:24:42;;;;;;;3.65;1.22;;;;;;;30.61;23.38;100350.87;1778440;79;21065;-71
2022/06/06 12:27:46;;;;;;;2.47;0.80;;;;;;;30.87;22.97;100347.91;1775078;80;21013;-71
2022/06/06 12:30:24;;;;;;;1.98;0.85;;;;;;;31.10;22.21;100343.52;1767311;80;21756;-72
2022/06/06 12:33:05;;;;;;;3.17;0.85;;;;;;;31.27;22.34;100340.17;1746101;80;20988;-73
2022/06/06 12:35:43;;;;;;;2.90;0.80;;;;;;;31.46;22.38;100342.49;1779787;80;21008;-73
2022/06/06 12:38:47;;;;;;;2.83;0.82;;;;;;;31.71;22.11;100340.52;1765412;80;21011;-74
2022/06/06 12:42:12;;;;;;;3.00;0.78;;;;;;;31.99;22.15;100344.83;1792444;80;20941;-73
2022/06/06 12:44:50;;;;;;;1.17;0.80;;;;;;;31.82;21.44;100343.62;1746525;81;21882;-72
2022/06/06 12:47:37;;;;;;;1.72;0.90;;;;;;;31.50;22.90;100340.91;1792148;80;21035;-73
2022/06/06 12:50:32;;;;;;;1.02;0.90;;;;;;;31.49;23.17;100340.62;1790889;80;21441;-70
2022/06/06 12:53:26;;;;;;;1.55;1.00;;;;;;;31.65;23.12;100331.99;1782967;80;21008;-70
2022/06/06 12:56:25;;;;;;;3.02;0.80;;;;;;;31.78;21.71;100328.31;1708256;81;20945;-70
2022/06/06 12:59:28;;;;;;;2.52;0.90;;;;;;;31.48;22.28;100337.08;1762314;80;21835;-71
2022/06/06 13:02:33;;;;;;;1.30;0.90;;;;;;;31.14;22.52;100335.09;1762634;80;20984;-71
2022/06/06 13:05:23;;;;;;;2.10;0.90;;;;;;;30.72;22.38;100323.49;1791792;80;20984;-71
2022/06/06 13:08:08;;;;;;;2.10;1.00;;;;;;;30.24;23.14;100323.42;1763234;79;20957;-71